createdAt,value
2022-12-24T00:00:05.896Z,23.45
2022-12-24T00:03:11.545Z,23.62
2022-12-24T00:06:24.206Z,21.12
2022-12-24T00:09:30.867Z,22.52
2022-12-24T00:12:38.638Z,22.37
2022-12-24T00:15:44.070Z,23.10
2022-12-24T00:18:50.176Z,25.72
2022-12-24T00:21:56.275Z,25.02
2022-12-24T00:25:02.922Z,23.22
2022-12-24T00:28:09.238Z,24.35
2022-12-24T00:31:14.026Z,24.32
2022-12-24T00:34:21.075Z,23.47
2022-12-24T00:37:26.653Z,23.67
2022-12-24T00:40:33.222Z,24.07
2022-12-24T00:43:38.168Z,24.27
2022-12-24T00:46:44.328Z,24.77
2022-12-24T00:49:49.507Z,24.80
2022-12-24T00:52:56.211Z,25.00
2022-12-24T00:56:01.170Z,25.45
2022-12-24T00:59:06.234Z,24.02
2022-12-24T01:02:12.315Z,25.40
2022-12-24T01:05:17.930Z,26.17
2022-12-24T01:08:24.851Z,25.45
2022-12-24T01:11:31.725Z,24.55
2022-12-24T01:14:37.864Z,27.25
2022-12-24T01:17:46.064Z,26.02
2022-12-24T01:20:51.138Z,26.77
2022-12-24T01:23:57.354Z,26.12
2022-12-24T01:27:02.727Z,27.77
2022-12-24T01:30:08.138Z,27.20
2022-12-24T01:33:14.266Z,25.82
2022-12-24T01:36:20.989Z,25.02
2022-12-24T01:39:26.061Z,25.37
2022-12-24T01:42:55.784Z,26.33
2022-12-24T01:46:08.472Z,25.57
2022-12-24T01:49:17.598Z,24.45
2022-12-24T01:52:29.957Z,25.60
2022-12-24T01:55:36.455Z,26.27
2022-12-24T01:58:44.743Z,26.33
2022-12-24T02:01:52.014Z,26.45
2022-12-24T02:05:12.156Z,27.50
2022-12-24T02:08:18.200Z,26.00
2022-12-24T02:11:34.296Z,25.55
2022-12-24T02:14:39.631Z,26.82
2022-12-24T02:17:55.691Z,26.37
2022-12-24T02:21:30.858Z,26.95
2022-12-24T02:24:41.213Z,26.57
2022-12-24T02:28:02.849Z,26.90
2022-12-24T02:31:18.310Z,27.52
2022-12-24T02:34:35.866Z,25.97
2022-12-24T02:37:46.306Z,28.42
2022-12-24T02:40:56.713Z,26.85
2022-12-24T02:44:02.114Z,27.42
2022-12-24T02:47:08.353Z,29.82
2022-12-24T02:50:16.248Z,28.23
2022-12-24T02:53:23.647Z,27.95
2022-12-24T02:57:06.718Z,27.58
2022-12-24T03:00:23.362Z,25.55
2022-12-24T03:03:52.698Z,27.25
2022-12-24T03:07:12.350Z,25.52
2022-12-24T03:10:57.843Z,25.17
2022-12-24T03:14:04.582Z,26.07
2022-12-24T03:17:11.645Z,26.57
2022-12-24T03:20:17.468Z,27.00
2022-12-24T03:23:22.625Z,26.87
2022-12-24T03:26:29.247Z,27.40
2022-12-24T03:29:34.447Z,25.80
2022-12-24T03:32:46.457Z,25.95
2022-12-24T03:35:52.224Z,27.27
2022-12-24T03:38:58.172Z,25.77
2022-12-24T03:42:04.420Z,26.23
2022-12-24T03:45:09.303Z,28.45
2022-12-24T03:48:17.740Z,28.15
2022-12-24T03:51:32.049Z,28.62
2022-12-24T03:54:37.196Z,28.87
2022-12-24T03:57:43.271Z,29.55
2022-12-24T04:00:49.467Z,29.67
2022-12-24T04:03:55.908Z,30.57
2022-12-24T04:07:02.211Z,29.45
2022-12-24T04:10:08.629Z,30.17
2022-12-24T04:13:13.940Z,29.57
2022-12-24T04:16:23.194Z,29.48
2022-12-24T04:19:30.336Z,29.77
2022-12-24T04:22:36.589Z,30.00
2022-12-24T04:25:43.855Z,32.05
2022-12-24T04:28:48.892Z,30.97
2022-12-24T04:31:54.908Z,30.80
2022-12-24T04:35:00.608Z,31.30
2022-12-24T04:38:06.595Z,32.08
2022-12-24T04:41:25.277Z,30.37
2022-12-24T04:44:30.645Z,30.72
2022-12-24T04:47:36.855Z,32.73
2022-12-24T04:50:42.024Z,31.55
2022-12-24T04:53:47.535Z,35.15
2022-12-24T04:56:53.278Z,31.85
2022-12-24T04:59:59.166Z,31.42
2022-12-24T05:03:05.008Z,30.72
2022-12-24T05:06:19.563Z,28.87
2022-12-24T05:09:26.866Z,28.73
2022-12-24T05:12:33.536Z,29.87
2022-12-24T05:15:39.107Z,27.50
2022-12-24T05:18:44.580Z,28.20
2022-12-24T05:21:50.894Z,30.68
2022-12-24T05:25:14.673Z,29.57
2022-12-24T05:31:26.910Z,31.02
2022-12-24T05:34:32.962Z,29.90
2022-12-24T05:37:39.481Z,28.98
2022-12-24T05:40:48.497Z,29.67
2022-12-24T05:43:54.954Z,29.85
2022-12-24T05:47:03.365Z,28.55
2022-12-24T05:50:09.867Z,28.73
2022-12-24T05:53:18.162Z,28.52
2022-12-24T05:56:32.495Z,29.35
2022-12-24T05:59:38.665Z,27.60
2022-12-24T06:02:44.763Z,32.63
2022-12-24T06:05:50.896Z,31.97
2022-12-24T06:08:57.485Z,32.33
2022-12-24T06:12:02.897Z,31.07
2022-12-24T06:15:08.538Z,35.85
2022-12-24T06:18:14.986Z,39.90
2022-12-24T06:21:21.747Z,33.35
2022-12-24T06:24:27.277Z,31.90
2022-12-24T06:27:34.154Z,36.77
2022-12-24T06:30:40.007Z,33.53
2022-12-24T06:33:46.385Z,35.08
2022-12-24T06:36:52.153Z,37.48
2022-12-24T06:39:57.975Z,33.05
2022-12-24T06:43:02.975Z,30.43
2022-12-24T06:46:08.572Z,31.00
2022-12-24T06:49:15.016Z,29.40
2022-12-24T06:52:20.303Z,28.17
2022-12-24T06:55:25.787Z,27.85
2022-12-24T06:58:31.885Z,30.17
2022-12-24T07:01:37.862Z,32.08
2022-12-24T07:04:42.926Z,31.37
2022-12-24T07:07:47.629Z,31.62
2022-12-24T07:10:54.520Z,31.35
2022-12-24T07:14:01.887Z,31.77
2022-12-24T07:17:07.489Z,31.42
2022-12-24T07:20:14.614Z,31.75
2022-12-24T07:23:20.119Z,40.17
2022-12-24T07:26:25.647Z,50.58
2022-12-24T07:29:31.396Z,54.90
2022-12-24T07:32:37.987Z,36.08
2022-12-24T07:35:44.819Z,33.00
2022-12-24T07:38:50.360Z,28.42
2022-12-24T07:41:57.252Z,28.70
2022-12-24T07:45:03.714Z,29.20
2022-12-24T07:48:10.102Z,29.02
2022-12-24T07:51:15.298Z,28.87
2022-12-24T07:54:21.347Z,28.87
2022-12-24T07:57:26.826Z,29.27
2022-12-24T08:00:33.416Z,28.85
2022-12-24T08:03:40.513Z,28.57
2022-12-24T08:06:46.735Z,32.70
2022-12-24T08:09:57.061Z,29.55
2022-12-24T08:13:03.362Z,26.35
2022-12-24T08:16:08.875Z,27.93
2022-12-24T08:19:17.426Z,28.15
2022-12-24T08:22:23.414Z,29.37
2022-12-24T08:25:28.709Z,27.67
2022-12-24T08:28:35.108Z,30.62
2022-12-24T08:31:43.528Z,28.20
2022-12-24T08:34:50.142Z,29.45
2022-12-24T08:37:58.066Z,29.37
2022-12-24T08:41:04.012Z,29.72
2022-12-24T08:44:10.934Z,27.77
2022-12-24T08:47:20.011Z,28.60
2022-12-24T08:50:26.208Z,29.52
2022-12-24T08:53:34.042Z,29.90
2022-12-24T08:56:42.811Z,30.75
2022-12-24T08:59:47.665Z,28.25
2022-12-24T09:02:56.253Z,29.57
2022-12-24T09:06:03.110Z,29.27
2022-12-24T09:09:10.568Z,29.95
2022-12-24T09:12:20.070Z,28.87
2022-12-24T09:15:26.336Z,30.57
2022-12-24T09:18:34.229Z,30.52
2022-12-24T09:21:39.786Z,30.68
2022-12-24T09:24:47.026Z,32.33
2022-12-24T09:27:54.102Z,31.85
2022-12-24T09:31:00.175Z,32.45
2022-12-24T09:34:06.068Z,32.03
2022-12-24T09:37:13.366Z,31.57
2022-12-24T09:40:21.183Z,32.42
2022-12-24T09:43:38.776Z,30.20
2022-12-24T09:46:50.533Z,29.35
2022-12-24T09:49:59.463Z,26.12
2022-12-24T09:53:08.297Z,28.83
2022-12-24T09:56:15.776Z,29.67
2022-12-24T09:59:34.579Z,29.30
2022-12-24T10:02:42.886Z,27.15
2022-12-24T10:06:04.118Z,25.72
2022-12-24T10:09:26.937Z,26.43
2022-12-24T10:12:50.482Z,28.15
2022-12-24T10:16:21.170Z,30.17
2022-12-24T10:19:40.908Z,27.87
2022-12-24T10:23:17.536Z,27.27
2022-12-24T10:26:42.794Z,29.02
2022-12-24T10:29:56.575Z,25.40
2022-12-24T10:33:07.509Z,28.15
2022-12-24T10:36:13.577Z,28.87
2022-12-24T10:39:21.093Z,28.73
2022-12-24T10:42:26.503Z,29.02
2022-12-24T10:45:36.814Z,28.70
2022-12-24T10:48:52.658Z,27.67
2022-12-24T10:52:11.858Z,24.90
2022-12-24T10:55:28.271Z,26.15
2022-12-24T10:58:35.390Z,25.80
2022-12-24T11:02:02.360Z,26.35
2022-12-24T11:05:09.401Z,22.77
2022-12-24T11:08:32.233Z,22.62
2022-12-24T11:11:38.301Z,22.75
2022-12-24T11:14:49.909Z,23.52
2022-12-24T11:17:56.136Z,24.35
2022-12-24T11:21:07.635Z,26.42
2022-12-24T11:24:29.735Z,22.87
2022-12-24T11:27:46.905Z,23.55
2022-12-24T11:30:52.855Z,23.18
2022-12-24T11:34:07.049Z,22.35
2022-12-24T11:37:39.195Z,23.15
2022-12-24T11:40:52.499Z,24.80
2022-12-24T11:44:01.260Z,26.65
2022-12-24T11:47:07.377Z,24.60
2022-12-24T11:50:18.673Z,26.65
2022-12-24T11:53:34.585Z,25.08
2022-12-24T11:56:53.163Z,24.57
2022-12-24T12:00:03.587Z,24.23
2022-12-24T12:03:11.143Z,25.75
2022-12-24T12:06:17.904Z,24.82
2022-12-24T12:09:29.885Z,24.95
2022-12-24T12:12:42.432Z,24.45
2022-12-24T12:16:07.442Z,24.12
2022-12-24T12:19:20.336Z,25.90
2022-12-24T12:22:33.703Z,28.35
2022-12-24T12:25:52.178Z,25.45
2022-12-24T12:29:15.163Z,26.17
2022-12-24T12:32:23.692Z,26.50
2022-12-24T12:35:47.994Z,28.17
2022-12-24T12:38:56.183Z,27.60
2022-12-24T12:42:44.891Z,27.98
2022-12-24T12:46:10.236Z,28.38
2022-12-24T12:49:41.576Z,26.68
2022-12-24T12:53:29.007Z,25.02
2022-12-24T12:56:47.932Z,27.02
2022-12-24T13:00:06.399Z,27.30
2022-12-24T13:03:29.102Z,27.32
2022-12-24T13:06:54.592Z,26.97
2022-12-24T13:10:13.461Z,26.15
2022-12-24T13:13:50.319Z,26.82
2022-12-24T13:17:34.238Z,28.12
2022-12-24T13:20:46.279Z,27.58
2022-12-24T13:23:51.770Z,28.42
2022-12-24T13:26:58.130Z,29.27
2022-12-24T13:30:21.506Z,30.62
2022-12-24T13:33:30.701Z,28.27
2022-12-24T13:36:36.846Z,28.65
2022-12-24T13:39:42.424Z,29.75
2022-12-24T13:43:19.057Z,30.43
2022-12-24T13:46:23.969Z,31.62
2022-12-24T13:49:57.120Z,30.60
2022-12-24T13:53:08.587Z,33.05
2022-12-24T13:56:29.176Z,34.35
2022-12-24T13:59:51.511Z,35.10
2022-12-24T14:03:20.772Z,33.75
2022-12-24T14:06:47.321Z,35.38
2022-12-24T14:09:53.743Z,37.63
2022-12-24T14:13:04.863Z,34.90
2022-12-24T14:16:16.668Z,33.50
2022-12-24T14:19:35.368Z,30.27
2022-12-24T14:22:59.425Z,30.27
2022-12-24T14:26:05.923Z,28.95
2022-12-24T14:29:24.593Z,29.70
2022-12-24T14:32:30.907Z,31.27
2022-12-24T14:35:39.177Z,28.10
2022-12-24T14:38:44.978Z,29.98
2022-12-24T14:42:13.999Z,30.62
2022-12-24T14:45:49.982Z,29.90
2022-12-24T14:53:04.794Z,33.38
2022-12-24T14:56:00.605Z,33.15
2022-12-24T14:59:10.032Z,34.33
2022-12-24T15:02:38.030Z,34.08
2022-12-24T15:05:44.647Z,32.80
2022-12-24T15:09:02.685Z,32.33
2022-12-24T15:12:12.343Z,29.72
2022-12-24T15:15:16.990Z,31.48
2022-12-24T15:18:24.136Z,28.92
2022-12-24T15:21:37.312Z,30.08
2022-12-24T15:24:49.228Z,30.75
2022-12-24T15:27:56.236Z,28.92
2022-12-24T15:31:03.752Z,33.92
2022-12-24T15:34:11.349Z,33.28
2022-12-24T15:37:27.121Z,32.58
2022-12-24T15:40:36.733Z,33.13
2022-12-24T15:43:42.615Z,39.33
2022-12-24T15:46:48.907Z,41.85
2022-12-24T15:49:58.647Z,35.65
2022-12-24T15:53:19.310Z,35.03
2022-12-24T15:56:27.342Z,32.08
2022-12-24T15:59:37.765Z,32.80
2022-12-24T16:03:00.024Z,35.70
2022-12-24T16:06:25.241Z,39.75
2022-12-24T16:09:56.052Z,41.33
2022-12-24T16:13:00.909Z,37.45
2022-12-24T16:16:10.176Z,35.17
2022-12-24T16:19:17.022Z,33.35
2022-12-24T16:22:42.299Z,35.43
2022-12-24T16:25:48.680Z,31.42
2022-12-24T16:28:54.729Z,34.00
2022-12-24T16:32:06.227Z,32.80
2022-12-24T16:35:11.010Z,32.65
2022-12-24T16:38:16.836Z,30.32
2022-12-24T16:41:22.678Z,32.05
2022-12-24T16:44:29.321Z,31.77
2022-12-24T16:47:43.315Z,31.12
2022-12-24T16:50:48.256Z,33.33
2022-12-24T16:53:54.949Z,31.52
2022-12-24T16:57:01.753Z,31.12
2022-12-24T17:00:09.768Z,32.70
2022-12-24T17:03:14.476Z,34.08
2022-12-24T17:06:21.978Z,36.80
2022-12-24T17:09:28.605Z,36.05
2022-12-24T17:12:34.646Z,37.65
2022-12-24T17:15:40.554Z,38.95
2022-12-24T17:18:46.190Z,41.13
2022-12-24T17:21:52.956Z,41.53
2022-12-24T17:24:58.728Z,41.15
2022-12-24T17:28:05.621Z,43.78
2022-12-24T17:31:10.799Z,44.25
2022-12-24T17:34:16.411Z,44.67
2022-12-24T17:37:24.249Z,45.23
2022-12-24T17:40:31.632Z,44.73
2022-12-24T17:43:37.382Z,45.45
2022-12-24T17:46:43.550Z,44.53
2022-12-24T17:49:48.732Z,45.30
2022-12-24T17:52:55.910Z,43.75
2022-12-24T17:56:00.873Z,44.10
2022-12-24T17:59:07.230Z,42.58
2022-12-24T18:02:12.365Z,43.83
2022-12-24T18:05:19.082Z,43.23
2022-12-24T18:08:24.519Z,44.10
2022-12-24T18:11:39.959Z,44.53
2022-12-24T18:14:48.040Z,43.65
2022-12-24T18:17:53.509Z,42.75
2022-12-24T18:21:00.914Z,44.77
2022-12-24T18:24:05.790Z,40.78
2022-12-24T18:27:13.163Z,42.73
2022-12-24T18:30:27.626Z,42.27
2022-12-24T18:33:29.796Z,43.08
2022-12-24T18:36:35.820Z,41.60
2022-12-24T18:39:43.405Z,41.77
2022-12-24T18:42:50.676Z,41.90
2022-12-24T18:45:58.591Z,39.10
2022-12-24T18:49:06.387Z,40.48
2022-12-24T18:52:16.574Z,42.25
2022-12-24T18:55:21.592Z,42.78
2022-12-24T18:58:27.678Z,41.70
2022-12-24T19:01:37.779Z,41.70
2022-12-24T19:04:45.244Z,41.70
2022-12-24T19:07:52.076Z,38.25
2022-12-24T19:10:59.124Z,39.18
2022-12-24T19:14:08.922Z,38.75
2022-12-24T19:17:14.902Z,39.80
2022-12-24T19:20:21.005Z,44.73
2022-12-24T19:23:29.965Z,42.83
2022-12-24T19:26:35.421Z,38.83
2022-12-24T19:29:42.767Z,44.63
2022-12-24T19:32:48.551Z,43.75
2022-12-24T19:35:53.904Z,46.90
2022-12-24T19:39:00.922Z,47.67
2022-12-24T19:42:07.038Z,48.90
2022-12-24T19:45:12.111Z,47.60
2022-12-24T19:48:19.306Z,48.73
2022-12-24T19:51:27.549Z,48.10
2022-12-24T19:54:34.203Z,53.98
2022-12-24T19:57:39.459Z,62.65
2022-12-24T20:00:45.566Z,80.62
2022-12-24T20:03:52.456Z,91.75
2022-12-24T20:07:00.698Z,98.97
2022-12-24T20:10:06.950Z,64.87
2022-12-24T20:13:14.206Z,58.02
2022-12-24T20:16:22.868Z,50.55
2022-12-24T20:19:29.252Z,46.15
2022-12-24T20:22:36.295Z,44.40
2022-12-24T20:25:42.044Z,46.63
2022-12-24T20:28:51.215Z,44.70
2022-12-24T20:31:58.589Z,43.17
2022-12-24T20:35:06.927Z,42.93
2022-12-24T20:38:13.295Z,42.20
2022-12-24T20:41:20.367Z,41.98
2022-12-24T20:44:26.978Z,43.33
2022-12-24T20:47:33.208Z,43.20
2022-12-24T20:50:39.407Z,43.68
2022-12-24T20:53:47.599Z,45.83
2022-12-24T20:56:57.907Z,44.00
2022-12-24T21:00:06.040Z,43.95
2022-12-24T21:03:12.467Z,42.50
2022-12-24T21:06:20.411Z,46.77
2022-12-24T21:09:27.726Z,45.12
2022-12-24T21:12:51.748Z,43.80
2022-12-24T21:15:59.445Z,48.85
2022-12-24T21:19:04.465Z,46.68
2022-12-24T21:22:09.671Z,45.43
2022-12-24T21:25:16.209Z,43.73
2022-12-24T21:28:22.354Z,45.33
2022-12-24T21:31:29.615Z,42.85
2022-12-24T21:34:38.187Z,42.05
2022-12-24T21:37:44.695Z,41.10
2022-12-24T21:40:50.620Z,41.48
2022-12-24T21:43:58.601Z,45.55
2022-12-24T21:47:05.167Z,40.67
2022-12-24T21:50:32.261Z,41.98
2022-12-24T21:53:56.472Z,44.35
2022-12-24T21:57:20.400Z,44.55
2022-12-24T22:00:31.655Z,43.38
2022-12-24T22:03:37.960Z,45.85
2022-12-24T22:07:01.957Z,42.58
2022-12-24T22:10:20.902Z,42.95
2022-12-24T22:13:16.288Z,41.90
2022-12-24T22:16:22.413Z,40.80
2022-12-24T22:19:28.444Z,42.15
2022-12-24T22:22:34.971Z,43.00
2022-12-24T22:25:40.049Z,43.70
2022-12-24T22:28:46.566Z,42.65
2022-12-24T22:31:54.238Z,42.90
2022-12-24T22:35:00.716Z,41.70
2022-12-24T22:38:06.030Z,41.33
2022-12-24T22:41:11.867Z,44.10
2022-12-24T22:44:17.229Z,44.58
2022-12-24T22:47:23.540Z,41.25
2022-12-24T22:50:30.318Z,43.15
2022-12-24T22:53:36.143Z,42.55
2022-12-24T22:56:42.565Z,43.70
2022-12-24T22:59:48.216Z,43.15
2022-12-24T23:02:54.852Z,45.43
2022-12-24T23:06:00.820Z,44.35
2022-12-24T23:09:07.336Z,42.80
2022-12-24T23:12:13.825Z,45.73
2022-12-24T23:15:21.074Z,45.88
2022-12-24T23:18:26.926Z,45.88
2022-12-24T23:21:27.253Z,48.45
2022-12-24T23:24:33.119Z,58.90
2022-12-24T23:27:39.112Z,53.48
2022-12-24T23:30:45.066Z,56.13
2022-12-24T23:33:51.052Z,54.33
2022-12-24T23:36:57.283Z,50.12
2022-12-24T23:40:03.955Z,48.17
2022-12-24T23:43:10.222Z,48.52
2022-12-24T23:46:17.736Z,50.80
2022-12-24T23:49:28.390Z,48.70
2022-12-24T23:52:34.331Z,45.78
2022-12-24T23:55:41.915Z,44.95
2022-12-24T23:58:47.182Z,46.58
